Terminal Aerodrome Forecast
Issued by NWS Grand Rapids, MI

Home | Current Version | Previous Version | Text Only | Print | Product List | Glossary On
Versions: 1 2 3 4 5 6 7 8 9 10 11 12 13 14
000
FTUS43 KGRR 252340
TAFGRR
TAF
KGRR 252340Z 2600/2624 17008KT P6SM SCT060
     FM260400 15005KT 5SM -SHRA BR VCTS BKN060CB
     FM260600 19005KT 4SM BR BKN080
     FM261400 22008KT P6SM SCT070=

USA.gov is the U.S. government's official web portal to all federal, state and local government web resources and services.